createdAt,value
2017-12-13T00:00:57.433Z,8.60
2017-12-13T00:03:26.234Z,8.70
2017-12-13T00:05:55.025Z,8.70
2017-12-13T00:08:23.814Z,8.70
2017-12-13T00:10:51.847Z,8.70
2017-12-13T00:13:19.934Z,8.70
2017-12-13T00:15:47.970Z,8.80
2017-12-13T00:18:16.024Z,8.80
2017-12-13T00:20:44.018Z,8.80
2017-12-13T00:23:12.062Z,8.80
2017-12-13T00:25:40.049Z,8.80
2017-12-13T00:28:08.026Z,8.80
2017-12-13T00:30:36.082Z,8.80
2017-12-13T00:33:04.085Z,8.80
2017-12-13T00:35:32.100Z,8.80
2017-12-13T00:38:00.161Z,8.80
2017-12-13T00:40:28.900Z,8.90
2017-12-13T00:42:56.915Z,8.90
2017-12-13T00:45:25.698Z,8.90
2017-12-13T00:47:54.402Z,8.80
2017-12-13T00:50:23.169Z,8.80
2017-12-13T00:52:51.997Z,8.80
2017-12-13T00:55:20.018Z,8.80
2017-12-13T00:57:48.077Z,8.80
2017-12-13T01:00:16.102Z,8.80
2017-12-13T01:02:44.084Z,8.80
2017-12-13T01:05:12.094Z,8.80
2017-12-13T01:07:40.149Z,8.80
2017-12-13T01:10:08.138Z,8.80
2017-12-13T01:12:36.146Z,8.80
2017-12-13T01:15:04.287Z,8.80
2017-12-13T01:17:33.072Z,8.80
2017-12-13T01:20:01.083Z,8.80
2017-12-13T01:22:29.096Z,8.80
2017-12-13T01:24:57.105Z,8.80
2017-12-13T01:27:25.861Z,8.80
2017-12-13T01:29:53.940Z,8.80
2017-12-13T01:32:21.962Z,8.80
2017-12-13T01:34:49.997Z,8.90
2017-12-13T01:37:18.777Z,8.90
2017-12-13T01:39:46.792Z,8.90
2017-12-13T01:42:14.794Z,9.00
2017-12-13T01:44:42.816Z,9.00
2017-12-13T01:47:10.849Z,9.00
2017-12-13T01:49:38.847Z,9.00
2017-12-13T01:52:07.642Z,9.00
2017-12-13T01:54:35.709Z,9.00
2017-12-13T01:57:04.509Z,9.10
2017-12-13T01:59:32.510Z,9.10
2017-12-13T02:02:00.568Z,9.10
2017-12-13T02:04:28.608Z,9.10
2017-12-13T02:06:57.397Z,9.10
2017-12-13T02:09:26.216Z,9.10
2017-12-13T02:11:54.225Z,9.00
2017-12-13T02:14:22.309Z,9.10
2017-12-13T02:16:51.157Z,9.10
2017-12-13T02:19:19.124Z,9.10
2017-12-13T02:21:47.204Z,9.10
2017-12-13T02:24:15.320Z,9.10
2017-12-13T02:26:44.083Z,9.20
2017-12-13T02:29:12.085Z,9.10
2017-12-13T02:31:40.890Z,9.10
2017-12-13T02:34:08.922Z,9.10
2017-12-13T02:36:36.931Z,9.20
2017-12-13T02:39:05.031Z,9.10
2017-12-13T02:41:33.026Z,9.20
2017-12-13T02:44:01.034Z,9.10
2017-12-13T02:46:29.805Z,9.20
2017-12-13T02:48:58.565Z,9.20
2017-12-13T02:51:26.616Z,9.20
2017-12-13T02:53:54.715Z,9.20
2017-12-13T02:56:22.808Z,9.20
2017-12-13T02:58:50.941Z,9.30
2017-12-13T03:01:19.005Z,9.30
2017-12-13T03:03:47.856Z,9.30
2017-12-13T03:06:16.656Z,9.30
2017-12-13T03:08:44.718Z,9.20
2017-12-13T03:11:13.568Z,9.30
2017-12-13T03:13:42.452Z,9.30
2017-12-13T03:16:10.480Z,9.40
2017-12-13T03:18:38.477Z,9.40
2017-12-13T03:21:06.545Z,9.40
2017-12-13T03:23:34.562Z,9.40
2017-12-13T03:26:02.564Z,9.40
2017-12-13T03:28:30.570Z,9.40
2017-12-13T03:30:58.606Z,9.40
2017-12-13T03:33:26.661Z,9.40
2017-12-13T03:35:55.428Z,9.40
2017-12-13T03:38:23.481Z,9.40
2017-12-13T03:40:51.493Z,9.40
2017-12-13T03:43:20.273Z,9.40
2017-12-13T03:45:49.058Z,9.40
2017-12-13T03:48:17.830Z,9.40
2017-12-13T03:50:45.719Z,9.30
2017-12-13T03:53:14.540Z,9.40
2017-12-13T03:55:42.550Z,9.40
2017-12-13T03:58:10.554Z,9.40
2017-12-13T04:00:39.356Z,9.40
2017-12-13T04:03:07.402Z,9.40
2017-12-13T04:05:35.384Z,9.40
2017-12-13T04:08:04.189Z,9.40
2017-12-13T04:10:32.200Z,9.40
2017-12-13T04:13:00.236Z,9.40
2017-12-13T04:15:28.245Z,9.40
2017-12-13T04:17:56.268Z,9.40
2017-12-13T04:20:24.291Z,9.40
2017-12-13T04:22:52.351Z,9.30
2017-12-13T04:25:20.343Z,9.30
2017-12-13T04:27:48.337Z,9.30
2017-12-13T04:30:17.151Z,9.20
2017-12-13T04:32:45.384Z,9.20
2017-12-13T04:35:13.430Z,9.20
2017-12-13T04:37:41.430Z,9.20
2017-12-13T04:40:09.430Z,9.20
2017-12-13T04:42:37.438Z,9.10
2017-12-13T04:45:05.464Z,9.10
2017-12-13T04:47:34.239Z,9.00
2017-12-13T04:50:03.004Z,9.00
2017-12-13T04:52:31.036Z,9.00
2017-12-13T04:54:59.047Z,8.90
2017-12-13T04:57:27.037Z,8.90
2017-12-13T04:59:55.809Z,8.80
2017-12-13T05:02:23.840Z,8.80
2017-12-13T05:04:51.841Z,8.80
2017-12-13T05:07:19.841Z,8.70
2017-12-13T05:09:48.686Z,8.70
2017-12-13T05:12:16.711Z,8.70
2017-12-13T05:14:45.495Z,8.60
2017-12-13T05:17:14.381Z,8.60
2017-12-13T05:19:43.233Z,8.50
2017-12-13T05:22:11.142Z,8.50
2017-12-13T05:24:39.911Z,8.50
2017-12-13T05:27:07.977Z,8.40
2017-12-13T05:29:36.024Z,8.40
2017-12-13T05:32:04.044Z,8.40
2017-12-13T05:34:32.832Z,8.40
2017-12-13T05:37:01.620Z,8.40
2017-12-13T05:39:30.382Z,8.30
2017-12-13T05:41:58.404Z,8.30
2017-12-13T05:44:26.392Z,8.40
2017-12-13T05:46:54.398Z,8.30
2017-12-13T05:49:22.381Z,8.30
2017-12-13T05:51:51.149Z,8.20
2017-12-13T05:54:19.179Z,8.20
2017-12-13T05:56:47.153Z,8.20
2017-12-13T05:59:15.161Z,8.10
2017-12-13T06:01:43.197Z,8.10
2017-12-13T06:04:11.207Z,8.10
2017-12-13T06:06:39.256Z,8.00
2017-12-13T06:09:07.254Z,8.00
2017-12-13T06:11:35.250Z,8.00
2017-12-13T06:14:04.064Z,7.90
2017-12-13T06:16:32.082Z,7.90
2017-12-13T06:19:00.090Z,7.90
2017-12-13T06:21:28.142Z,7.90
2017-12-13T06:23:56.913Z,7.80
2017-12-13T06:26:24.925Z,7.80
2017-12-13T06:28:52.944Z,7.80
2017-12-13T06:31:20.926Z,7.80
2017-12-13T06:33:49.689Z,7.70
2017-12-13T06:36:17.726Z,7.70
2017-12-13T06:38:45.718Z,7.70
2017-12-13T06:41:13.729Z,7.70
2017-12-13T06:43:42.503Z,7.60
2017-12-13T06:46:10.517Z,7.60
2017-12-13T06:48:38.518Z,7.60
2017-12-13T06:51:06.549Z,7.60
2017-12-13T06:53:34.423Z,7.60
2017-12-13T06:56:02.410Z,7.60
2017-12-13T06:58:30.406Z,7.60
2017-12-13T07:00:58.432Z,7.60
2017-12-13T07:03:26.478Z,7.60
2017-12-13T07:05:55.299Z,7.50
2017-12-13T07:08:23.290Z,7.50
2017-12-13T07:10:51.304Z,7.50
2017-12-13T07:13:19.293Z,7.50
2017-12-13T07:15:48.098Z,7.50
2017-12-13T07:18:16.129Z,7.50
2017-12-13T07:20:44.168Z,7.60
2017-12-13T07:23:12.594Z,7.60
2017-12-13T07:25:41.377Z,7.60
2017-12-13T07:28:10.140Z,7.60
2017-12-13T07:30:38.192Z,7.60
2017-12-13T07:33:06.255Z,7.60
2017-12-13T07:35:34.305Z,7.70
2017-12-13T07:38:02.370Z,7.80
2017-12-13T07:40:30.414Z,7.80
2017-12-13T07:42:58.427Z,7.90
2017-12-13T07:45:26.423Z,7.90
2017-12-13T07:47:54.444Z,8.00
2017-12-13T07:50:23.227Z,8.20
2017-12-13T07:52:51.993Z,8.30
2017-12-13T07:55:20.057Z,8.30
2017-12-13T07:57:48.086Z,8.30
2017-12-13T08:00:16.153Z,8.40
2017-12-13T08:02:44.197Z,8.50
2017-12-13T08:05:12.954Z,8.70
2017-12-13T08:07:40.987Z,8.60
2017-12-13T08:10:09.010Z,8.70
2017-12-13T08:12:37.055Z,8.80
2017-12-13T08:15:14.889Z,8.90
2017-12-13T08:17:55.115Z,9.00
2017-12-13T08:20:30.472Z,9.00
2017-12-13T08:23:11.090Z,9.10
2017-12-13T08:25:48.727Z,9.20
2017-12-13T08:28:29.877Z,9.30
2017-12-13T08:31:10.765Z,9.40
2017-12-13T08:33:49.861Z,9.60
2017-12-13T08:36:30.106Z,9.70
2017-12-13T08:39:13.070Z,9.90
2017-12-13T08:41:49.506Z,10.00
2017-12-13T08:44:21.672Z,10.10
2017-12-13T08:47:00.497Z,10.20
2017-12-13T08:49:38.700Z,10.30
2017-12-13T08:52:19.095Z,10.60
2017-12-13T08:54:59.483Z,10.50
2017-12-13T08:57:39.881Z,10.70
2017-12-13T09:00:17.403Z,10.80
2017-12-13T09:02:57.271Z,10.90
2017-12-13T09:05:29.575Z,11.00
2017-12-13T09:08:09.584Z,11.10
2017-12-13T09:10:48.996Z,11.30
2017-12-13T09:13:28.753Z,11.40
2017-12-13T09:16:05.504Z,11.50
2017-12-13T09:18:47.000Z,11.80
2017-12-13T09:21:25.915Z,11.80
2017-12-13T09:24:05.539Z,12.00
2017-12-13T09:26:45.624Z,12.00
2017-12-13T09:29:26.128Z,12.10
2017-12-13T09:32:05.373Z,12.20
2017-12-13T09:34:45.634Z,12.30
2017-12-13T09:37:22.331Z,12.50
2017-12-13T09:40:01.193Z,12.70
2017-12-13T09:42:39.879Z,12.60
2017-12-13T09:45:19.313Z,12.80
2017-12-13T09:47:59.865Z,13.00
2017-12-13T09:50:39.411Z,12.90
2017-12-13T09:53:19.882Z,13.20
2017-12-13T09:55:57.036Z,13.40
2017-12-13T09:58:38.247Z,13.40
2017-12-13T10:01:19.626Z,13.60
2017-12-13T10:04:00.740Z,13.70
2017-12-13T10:06:41.120Z,13.60
2017-12-13T10:09:19.984Z,13.80
2017-12-13T10:11:56.567Z,13.90
2017-12-13T10:14:37.013Z,14.20
2017-12-13T10:17:17.012Z,14.20
2017-12-13T10:19:59.762Z,14.40
2017-12-13T10:22:45.958Z,14.50
2017-12-13T10:25:26.281Z,14.50
2017-12-13T10:28:06.402Z,14.60
2017-12-13T10:30:47.128Z,14.90
2017-12-13T10:33:26.950Z,14.80
2017-12-13T10:36:07.634Z,15.00
2017-12-13T10:38:46.067Z,15.10
2017-12-13T10:41:21.504Z,15.20
2017-12-13T10:44:02.102Z,15.30
2017-12-13T10:46:40.699Z,15.40
2017-12-13T10:49:20.888Z,15.60
2017-12-13T10:52:00.798Z,15.70
2017-12-13T10:54:40.933Z,15.70
2017-12-13T10:57:23.226Z,15.80
2017-12-13T11:00:06.698Z,15.90
2017-12-13T11:02:46.328Z,15.90
2017-12-13T11:05:26.532Z,15.90
2017-12-13T11:08:03.358Z,15.90
2017-12-13T11:10:43.586Z,15.90
2017-12-13T11:13:22.550Z,15.90
2017-12-13T11:16:02.795Z,16.00
2017-12-13T11:18:43.461Z,16.00
2017-12-13T11:21:24.213Z,16.00
2017-12-13T11:24:03.913Z,16.10
2017-12-13T11:26:43.889Z,16.10
2017-12-13T11:29:26.464Z,16.20
2017-12-13T11:32:05.928Z,16.20
2017-12-13T11:34:46.917Z,16.20
2017-12-13T11:37:26.030Z,16.20
2017-12-13T11:40:07.219Z,16.30
2017-12-13T11:42:47.765Z,16.30
2017-12-13T11:45:28.476Z,16.30
2017-12-13T11:48:08.596Z,16.30
2017-12-13T11:50:49.480Z,16.20
2017-12-13T11:53:30.552Z,16.20
2017-12-13T11:56:10.336Z,16.10
2017-12-13T11:58:50.496Z,16.10
2017-12-13T12:01:31.004Z,16.00
2017-12-13T12:04:11.356Z,15.90
2017-12-13T12:06:52.158Z,15.90
2017-12-13T12:09:30.468Z,15.90
2017-12-13T12:12:10.725Z,15.80
2017-12-13T12:14:51.872Z,15.70
2017-12-13T12:17:32.433Z,15.70
2017-12-13T12:20:12.378Z,15.60
2017-12-13T12:22:50.250Z,15.60
2017-12-13T12:25:30.101Z,15.60
2017-12-13T12:28:10.757Z,15.50
2017-12-13T12:30:51.173Z,15.50
2017-12-13T12:33:31.738Z,15.40
2017-12-13T12:36:12.396Z,15.30
2017-12-13T12:38:49.859Z,15.30
2017-12-13T12:41:26.861Z,15.20
2017-12-13T12:44:07.111Z,15.10
2017-12-13T12:46:46.487Z,15.10
2017-12-13T12:49:26.529Z,15.00
2017-12-13T12:52:05.675Z,15.00
2017-12-13T12:54:47.124Z,14.90
2017-12-13T12:57:27.229Z,14.90
2017-12-13T13:00:05.373Z,14.80
2017-12-13T13:02:45.099Z,14.80
2017-12-13T13:05:23.100Z,14.80
2017-12-13T13:08:03.059Z,14.70
2017-12-13T13:10:33.134Z,14.70
2017-12-13T13:13:04.584Z,14.60
2017-12-13T13:15:35.356Z,14.50
2017-12-13T13:18:05.368Z,14.60
2017-12-13T13:20:35.143Z,14.50
2017-12-13T13:23:04.871Z,14.40
2017-12-13T13:25:37.267Z,14.40
2017-12-13T13:28:08.384Z,14.30
2017-12-13T13:30:38.108Z,14.30
2017-12-13T13:33:07.710Z,14.20
2017-12-13T13:35:39.916Z,14.20
2017-12-13T13:38:11.312Z,14.10
2017-12-13T13:40:42.971Z,14.00
2017-12-13T13:43:14.792Z,14.00
2017-12-13T13:45:46.942Z,14.00
2017-12-13T13:48:18.832Z,14.00
2017-12-13T13:53:27.187Z,13.90
2017-12-13T13:55:57.137Z,13.90
2017-12-13T13:58:27.384Z,13.80
2017-12-13T14:01:00.502Z,13.80
2017-12-13T14:03:30.912Z,13.70
2017-12-13T14:06:02.992Z,13.70
2017-12-13T14:08:33.153Z,13.70
2017-12-13T14:11:02.798Z,13.70
2017-12-13T14:13:32.954Z,13.60
2017-12-13T14:16:04.027Z,13.60
2017-12-13T14:18:35.125Z,13.50
2017-12-13T14:21:04.776Z,13.50
2017-12-13T14:23:37.581Z,13.50
2017-12-13T14:26:07.218Z,13.40
2017-12-13T14:28:42.771Z,13.40
2017-12-13T14:31:12.608Z,13.40
2017-12-13T14:33:42.098Z,13.40
2017-12-13T14:36:11.817Z,13.30
2017-12-13T14:38:43.189Z,13.30
2017-12-13T14:41:15.088Z,13.30
2017-12-13T14:43:46.031Z,13.20
2017-12-13T14:46:17.796Z,13.20
2017-12-13T14:48:49.685Z,13.20
2017-12-13T14:51:22.134Z,13.10
2017-12-13T14:53:52.596Z,13.00
2017-12-13T14:56:22.912Z,13.00
2017-12-13T14:58:52.543Z,13.00
2017-12-13T15:01:22.386Z,13.00
2017-12-13T15:03:53.343Z,13.00
2017-12-13T15:06:23.884Z,13.00
2017-12-13T15:08:53.472Z,13.00
2017-12-13T15:11:24.075Z,13.00
2017-12-13T15:13:54.516Z,12.90
2017-12-13T15:16:25.761Z,12.90
2017-12-13T15:19:00.315Z,12.80
2017-12-13T15:21:28.352Z,12.80
2017-12-13T15:23:56.369Z,12.80
2017-12-13T15:26:24.430Z,12.70
2017-12-13T15:28:52.465Z,12.70
2017-12-13T15:31:20.482Z,12.60
2017-12-13T15:33:53.667Z,12.60
2017-12-13T15:36:31.892Z,12.50
2017-12-13T15:39:13.603Z,12.40
2017-12-13T15:41:53.912Z,12.40
2017-12-13T15:44:35.320Z,12.40
2017-12-13T15:47:15.748Z,12.30
2017-12-13T15:49:56.459Z,12.30
2017-12-13T15:52:37.322Z,12.10
2017-12-13T15:55:18.829Z,12.10
2017-12-13T15:58:00.412Z,12.00
2017-12-13T16:00:41.877Z,12.00
2017-12-13T16:03:23.154Z,12.00
2017-12-13T16:06:03.677Z,12.00
2017-12-13T16:08:44.809Z,11.90
2017-12-13T16:11:25.810Z,11.70
2017-12-13T16:14:04.010Z,11.70
2017-12-13T16:16:43.210Z,11.60
2017-12-13T16:19:22.259Z,11.50
2017-12-13T16:22:01.264Z,11.40
2017-12-13T16:24:40.097Z,11.40
2017-12-13T16:27:18.884Z,11.30
2017-12-13T16:29:58.436Z,11.30
2017-12-13T16:32:37.921Z,11.20
2017-12-13T16:35:17.436Z,11.20
2017-12-13T16:37:55.564Z,11.20
2017-12-13T16:40:35.027Z,11.20
2017-12-13T16:43:14.966Z,11.20
2017-12-13T16:45:53.938Z,11.20
2017-12-13T16:48:33.947Z,11.20
2017-12-13T16:51:12.846Z,11.10
2017-12-13T16:53:50.772Z,11.10
2017-12-13T16:56:29.816Z,11.10
2017-12-13T16:59:09.290Z,11.00
2017-12-13T17:01:47.223Z,11.00
2017-12-13T17:04:26.151Z,11.00
2017-12-13T17:07:05.311Z,10.90
2017-12-13T17:09:42.560Z,10.90
2017-12-13T17:12:21.657Z,10.90
2017-12-13T17:15:00.751Z,10.80
2017-12-13T17:17:40.003Z,10.80
2017-12-13T17:20:19.188Z,10.80
2017-12-13T17:22:58.332Z,10.70
2017-12-13T17:25:38.329Z,10.60
2017-12-13T17:28:17.467Z,10.60
2017-12-13T17:30:56.294Z,10.60
2017-12-13T17:33:34.743Z,10.60
2017-12-13T17:36:14.733Z,10.60
2017-12-13T17:38:54.069Z,10.60
2017-12-13T17:41:33.020Z,10.60
2017-12-13T17:44:12.429Z,10.60
2017-12-13T17:46:51.591Z,10.50
2017-12-13T17:49:30.151Z,10.50
2017-12-13T17:52:09.888Z,10.50
2017-12-13T17:54:48.004Z,10.50
2017-12-13T17:57:26.954Z,10.50
2017-12-13T18:00:06.242Z,10.40
2017-12-13T18:02:44.639Z,10.40
2017-12-13T18:05:23.003Z,10.40
2017-12-13T18:08:02.804Z,10.30
2017-12-13T18:10:41.433Z,10.30
2017-12-13T18:13:19.481Z,10.30
2017-12-13T18:15:57.633Z,10.30
2017-12-13T18:18:36.477Z,10.30
2017-12-13T18:21:13.042Z,10.30
2017-12-13T18:23:47.253Z,10.20
2017-12-13T18:26:26.067Z,10.20
2017-12-13T18:29:05.762Z,10.20
2017-12-13T18:31:44.995Z,10.20
2017-12-13T18:34:25.201Z,10.10
2017-12-13T18:37:04.462Z,10.10
2017-12-13T18:39:43.347Z,10.10
2017-12-13T18:42:23.230Z,10.00
2017-12-13T18:45:02.296Z,10.00
2017-12-13T18:47:40.233Z,9.90
2017-12-13T18:50:17.675Z,9.80
2017-12-13T18:52:56.563Z,9.70
2017-12-13T18:55:35.151Z,9.70
2017-12-13T18:58:14.850Z,9.60
2017-12-13T19:00:54.862Z,9.60
2017-12-13T19:03:33.794Z,9.50
2017-12-13T19:06:12.491Z,9.50
2017-12-13T19:08:51.136Z,9.40
2017-12-13T19:11:25.736Z,9.40
2017-12-13T19:14:04.907Z,9.40
2017-12-13T19:16:43.838Z,9.30
2017-12-13T19:19:22.482Z,9.30
2017-12-13T19:22:02.597Z,9.20
2017-12-13T19:24:41.082Z,9.20
2017-12-13T19:27:19.803Z,9.10
2017-12-13T19:29:58.411Z,9.10
2017-12-13T19:32:36.426Z,9.10
2017-12-13T19:35:15.722Z,9.10
2017-12-13T19:37:56.692Z,9.10
2017-12-13T19:40:34.927Z,9.00
2017-12-13T19:43:14.299Z,9.00
2017-12-13T19:45:53.625Z,9.00
2017-12-13T19:48:32.543Z,9.00
2017-12-13T19:51:12.080Z,9.00
2017-12-13T19:53:51.035Z,8.90
2017-12-13T19:56:29.995Z,8.90
2017-12-13T19:59:07.453Z,8.90
2017-12-13T20:01:45.642Z,8.90
2017-12-13T20:04:24.860Z,8.90
2017-12-13T20:07:04.080Z,8.90
2017-12-13T20:09:44.355Z,8.80
2017-12-13T20:12:24.075Z,8.80
2017-12-13T20:15:08.755Z,8.80
2017-12-13T20:17:48.137Z,8.80
2017-12-13T20:20:27.526Z,8.80
2017-12-13T20:23:06.301Z,8.80
2017-12-13T20:25:46.008Z,8.70
2017-12-13T20:28:24.680Z,8.70
2017-12-13T20:31:02.438Z,8.70
2017-12-13T20:33:41.296Z,8.70
2017-12-13T20:36:21.029Z,8.70
2017-12-13T20:39:00.976Z,8.70
2017-12-13T20:41:40.554Z,8.70
2017-12-13T20:44:11.252Z,8.70
2017-12-13T20:46:46.209Z,8.60
2017-12-13T20:49:24.799Z,8.60
2017-12-13T20:52:03.430Z,8.60
2017-12-13T20:54:44.839Z,8.50
2017-12-13T20:57:23.438Z,8.50
2017-12-13T21:00:00.236Z,8.50
2017-12-13T21:02:39.442Z,8.50
2017-12-13T21:05:18.831Z,8.50
2017-12-13T21:07:57.973Z,8.50
2017-12-13T21:10:36.491Z,8.50
2017-12-13T21:13:14.732Z,8.40
2017-12-13T21:15:47.120Z,8.40
2017-12-13T21:18:19.385Z,8.40
2017-12-13T21:20:51.496Z,8.40
2017-12-13T21:23:23.650Z,8.40
2017-12-13T21:25:56.424Z,8.40
2017-12-13T21:28:29.592Z,8.40
2017-12-13T21:31:01.682Z,8.30
2017-12-13T21:33:33.626Z,8.30
2017-12-13T21:36:06.347Z,8.30
2017-12-13T21:38:39.840Z,8.30
2017-12-13T21:41:13.664Z,8.30
2017-12-13T21:43:45.762Z,8.30
2017-12-13T21:46:18.390Z,8.30
2017-12-13T21:48:50.122Z,8.20
2017-12-13T21:51:18.117Z,8.20
2017-12-13T21:53:46.940Z,8.20
2017-12-13T21:56:14.989Z,8.20
2017-12-13T21:58:43.757Z,8.20
2017-12-13T22:01:12.572Z,8.20
2017-12-13T22:03:40.588Z,8.20
2017-12-13T22:06:08.594Z,8.20
2017-12-13T22:08:37.416Z,8.20
2017-12-13T22:11:05.421Z,8.20
2017-12-13T22:13:33.457Z,8.20
2017-12-13T22:16:01.453Z,8.10
2017-12-13T22:18:29.445Z,8.10
2017-12-13T22:20:57.434Z,8.10
2017-12-13T22:23:26.205Z,8.20
2017-12-13T22:25:54.216Z,8.10
2017-12-13T22:28:22.202Z,8.20
2017-12-13T22:30:50.238Z,8.10
2017-12-13T22:33:19.012Z,8.10
2017-12-13T22:35:47.060Z,8.10
2017-12-13T22:38:15.086Z,8.00
2017-12-13T22:40:43.148Z,7.90
2017-12-13T22:43:11.944Z,7.90
2017-12-13T22:45:39.976Z,7.90
2017-12-13T22:48:07.990Z,7.90
2017-12-13T22:50:35.974Z,7.90
2017-12-13T22:53:03.981Z,7.90
2017-12-13T22:55:32.030Z,7.90
2017-12-13T22:58:00.016Z,7.80
2017-12-13T23:00:40.043Z,7.80
2017-12-13T23:03:08.146Z,7.80
2017-12-13T23:05:36.247Z,7.70
2017-12-13T23:08:05.031Z,7.70
2017-12-13T23:10:33.844Z,7.70
2017-12-13T23:13:01.872Z,7.70
2017-12-13T23:15:29.953Z,7.70
2017-12-13T23:17:58.066Z,7.70
2017-12-13T23:20:26.063Z,7.60
2017-12-13T23:22:54.113Z,7.60
2017-12-13T23:25:22.266Z,7.60
2017-12-13T23:27:50.337Z,7.60
2017-12-13T23:30:18.490Z,7.60
2017-12-13T23:32:46.548Z,7.60
2017-12-13T23:35:14.605Z,7.60
2017-12-13T23:37:42.614Z,7.60
2017-12-13T23:40:11.404Z,7.70
2017-12-13T23:42:40.170Z,7.70
2017-12-13T23:45:08.197Z,7.70
2017-12-13T23:47:36.201Z,7.70
2017-12-13T23:50:04.277Z,7.70
2017-12-13T23:52:32.278Z,7.60
2017-12-13T23:55:01.033Z,7.60
2017-12-13T23:57:29.041Z,7.60
2017-12-13T23:59:57.824Z,7.50
